<?xml version="1.0" encoding="UTF-8" standalone="no" ?>
<gpx xmlns="http://www.topografix.com/GPX/1/1" xmlns:xsi="http://www.w3.org/2001/XMLSchema-instance" xsi:schemaLocation="http://www.topografix.com/GPX/1/1 http://www.topografix.com/GPX/1/1/gpx.xsd" version="1.1" creator="VisuGPX - https://www.visugpx.com">
  <metadata>
    <name>HODENT GENAINVILLE OMERVILLE AMBLEVILLE</name>
  </metadata>
  <trk>
    <name><![CDATA[HODENT GENAINVILLE OMERVILLE AMBLEVILLE-18363221]]></name>
    <trkseg>
      <trkpt lat="49.14704" lon="1.76748">
        <ele>63</ele>
        <time>2024-10-25T07:55:16Z</time>
      </trkpt>
      <trkpt lat="49.14704" lon="1.76743">
        <ele>63</ele>
        <time>2024-10-25T07:55:19Z</time>
      </trkpt>
      <trkpt lat="49.14706" lon="1.76772">
        <ele>64</ele>
        <time>2024-10-25T07:55:34Z</time>
      </trkpt>
      <trkpt lat="49.14729" lon="1.76828">
        <ele>64</ele>
        <time>2024-10-25T07:56:09Z</time>
      </trkpt>
      <trkpt lat="49.14716" lon="1.76841">
        <ele>66</ele>
        <time>2024-10-25T07:56:21Z</time>
      </trkpt>
      <trkpt lat="49.14719" lon="1.76891">
        <ele>67</ele>
        <time>2024-10-25T07:56:47Z</time>
      </trkpt>
      <trkpt lat="49.14647" lon="1.76822">
        <ele>72</ele>
        <time>2024-10-25T07:57:55Z</time>
      </trkpt>
      <trkpt lat="49.14625" lon="1.76809">
        <ele>75</ele>
        <time>2024-10-25T07:58:14Z</time>
      </trkpt>
      <trkpt lat="49.14613" lon="1.76796">
        <ele>77</ele>
        <time>2024-10-25T07:58:26Z</time>
      </trkpt>
      <trkpt lat="49.14602" lon="1.76796">
        <ele>78</ele>
        <time>2024-10-25T07:58:35Z</time>
      </trkpt>
      <trkpt lat="49.14588" lon="1.76775">
        <ele>80</ele>
        <time>2024-10-25T07:58:50Z</time>
      </trkpt>
      <trkpt lat="49.14544" lon="1.76805">
        <ele>85</ele>
        <time>2024-10-25T07:59:29Z</time>
      </trkpt>
      <trkpt lat="49.14538" lon="1.76802">
        <ele>85</ele>
        <time>2024-10-25T07:59:34Z</time>
      </trkpt>
      <trkpt lat="49.14517" lon="1.76756">
        <ele>85</ele>
        <time>2024-10-25T08:00:03Z</time>
      </trkpt>
      <trkpt lat="49.145" lon="1.76732">
        <ele>86</ele>
        <time>2024-10-25T08:00:22Z</time>
      </trkpt>
      <trkpt lat="49.14483" lon="1.76719">
        <ele>88</ele>
        <time>2024-10-25T08:00:37Z</time>
      </trkpt>
      <trkpt lat="49.1445" lon="1.76707">
        <ele>92</ele>
        <time>2024-10-25T08:01:04Z</time>
      </trkpt>
      <trkpt lat="49.14418" lon="1.76686">
        <ele>95</ele>
        <time>2024-10-25T08:01:32Z</time>
      </trkpt>
      <trkpt lat="49.14403" lon="1.76681">
        <ele>96</ele>
        <time>2024-10-25T08:01:45Z</time>
      </trkpt>
      <trkpt lat="49.14375" lon="1.76692">
        <ele>98</ele>
        <time>2024-10-25T08:02:08Z</time>
      </trkpt>
      <trkpt lat="49.14334" lon="1.76683">
        <ele>100</ele>
        <time>2024-10-25T08:02:41Z</time>
      </trkpt>
      <trkpt lat="49.14307" lon="1.76672">
        <ele>101</ele>
        <time>2024-10-25T08:03:03Z</time>
      </trkpt>
      <trkpt lat="49.14279" lon="1.76672">
        <ele>102</ele>
        <time>2024-10-25T08:03:26Z</time>
      </trkpt>
      <trkpt lat="49.14237" lon="1.7666">
        <ele>103</ele>
        <time>2024-10-25T08:04:00Z</time>
      </trkpt>
      <trkpt lat="49.14216" lon="1.7665">
        <ele>104</ele>
        <time>2024-10-25T08:04:17Z</time>
      </trkpt>
      <trkpt lat="49.14198" lon="1.76652">
        <ele>104</ele>
        <time>2024-10-25T08:04:32Z</time>
      </trkpt>
      <trkpt lat="49.14166" lon="1.76642">
        <ele>104</ele>
        <time>2024-10-25T08:04:58Z</time>
      </trkpt>
      <trkpt lat="49.1414" lon="1.76637">
        <ele>104</ele>
        <time>2024-10-25T08:05:19Z</time>
      </trkpt>
      <trkpt lat="49.14119" lon="1.76638">
        <ele>104</ele>
        <time>2024-10-25T08:05:36Z</time>
      </trkpt>
      <trkpt lat="49.14079" lon="1.76628">
        <ele>104</ele>
        <time>2024-10-25T08:06:08Z</time>
      </trkpt>
      <trkpt lat="49.14036" lon="1.7664">
        <ele>103</ele>
        <time>2024-10-25T08:06:43Z</time>
      </trkpt>
      <trkpt lat="49.14021" lon="1.76652">
        <ele>103</ele>
        <time>2024-10-25T08:06:57Z</time>
      </trkpt>
      <trkpt lat="49.13995" lon="1.7668">
        <ele>103</ele>
        <time>2024-10-25T08:07:22Z</time>
      </trkpt>
      <trkpt lat="49.13947" lon="1.76748">
        <ele>106</ele>
        <time>2024-10-25T08:08:15Z</time>
      </trkpt>
      <trkpt lat="49.13924" lon="1.76768">
        <ele>108</ele>
        <time>2024-10-25T08:08:36Z</time>
      </trkpt>
      <trkpt lat="49.13901" lon="1.76798">
        <ele>110</ele>
        <time>2024-10-25T08:09:00Z</time>
      </trkpt>
      <trkpt lat="49.13821" lon="1.76742">
        <ele>109</ele>
        <time>2024-10-25T08:10:11Z</time>
      </trkpt>
      <trkpt lat="49.13762" lon="1.7671">
        <ele>112</ele>
        <time>2024-10-25T08:11:01Z</time>
      </trkpt>
      <trkpt lat="49.13733" lon="1.76678">
        <ele>115</ele>
        <time>2024-10-25T08:11:29Z</time>
      </trkpt>
      <trkpt lat="49.1372" lon="1.76675">
        <ele>117</ele>
        <time>2024-10-25T08:11:40Z</time>
      </trkpt>
      <trkpt lat="49.13682" lon="1.7665">
        <ele>123</ele>
        <time>2024-10-25T08:12:13Z</time>
      </trkpt>
      <trkpt lat="49.13655" lon="1.76623">
        <ele>126</ele>
        <time>2024-10-25T08:12:39Z</time>
      </trkpt>
      <trkpt lat="49.13636" lon="1.76612">
        <ele>127</ele>
        <time>2024-10-25T08:12:55Z</time>
      </trkpt>
      <trkpt lat="49.13597" lon="1.7657">
        <ele>131</ele>
        <time>2024-10-25T08:13:33Z</time>
      </trkpt>
      <trkpt lat="49.13582" lon="1.76562">
        <ele>132</ele>
        <time>2024-10-25T08:13:46Z</time>
      </trkpt>
      <trkpt lat="49.13515" lon="1.76494">
        <ele>133</ele>
        <time>2024-10-25T08:14:50Z</time>
      </trkpt>
      <trkpt lat="49.13504" lon="1.76477">
        <ele>133</ele>
        <time>2024-10-25T08:15:03Z</time>
      </trkpt>
      <trkpt lat="49.13497" lon="1.76456">
        <ele>133</ele>
        <time>2024-10-25T08:15:15Z</time>
      </trkpt>
      <trkpt lat="49.13456" lon="1.76388">
        <ele>134</ele>
        <time>2024-10-25T08:16:04Z</time>
      </trkpt>
      <trkpt lat="49.13431" lon="1.76362">
        <ele>135</ele>
        <time>2024-10-25T08:16:28Z</time>
      </trkpt>
      <trkpt lat="49.13404" lon="1.76312">
        <ele>134</ele>
        <time>2024-10-25T08:17:02Z</time>
      </trkpt>
      <trkpt lat="49.13358" lon="1.76255">
        <ele>133</ele>
        <time>2024-10-25T08:17:49Z</time>
      </trkpt>
      <trkpt lat="49.13329" lon="1.76203">
        <ele>133</ele>
        <time>2024-10-25T08:18:25Z</time>
      </trkpt>
      <trkpt lat="49.13276" lon="1.76149">
        <ele>132</ele>
        <time>2024-10-25T08:19:16Z</time>
      </trkpt>
      <trkpt lat="49.13233" lon="1.76117">
        <ele>131</ele>
        <time>2024-10-25T08:19:54Z</time>
      </trkpt>
      <trkpt lat="49.1319" lon="1.76073">
        <ele>131</ele>
        <time>2024-10-25T08:20:36Z</time>
      </trkpt>
      <trkpt lat="49.1314" lon="1.75955">
        <ele>130</ele>
        <time>2024-10-25T08:21:50Z</time>
      </trkpt>
      <trkpt lat="49.13101" lon="1.75883">
        <ele>128</ele>
        <time>2024-10-25T08:22:38Z</time>
      </trkpt>
      <trkpt lat="49.1301" lon="1.75805">
        <ele>127</ele>
        <time>2024-10-25T08:24:02Z</time>
      </trkpt>
      <trkpt lat="49.12921" lon="1.75746">
        <ele>125</ele>
        <time>2024-10-25T08:25:20Z</time>
      </trkpt>
      <trkpt lat="49.12886" lon="1.75698">
        <ele>122</ele>
        <time>2024-10-25T08:25:57Z</time>
      </trkpt>
      <trkpt lat="49.12859" lon="1.75652">
        <ele>120</ele>
        <time>2024-10-25T08:26:30Z</time>
      </trkpt>
      <trkpt lat="49.12818" lon="1.75614">
        <ele>116</ele>
        <time>2024-10-25T08:27:08Z</time>
      </trkpt>
      <trkpt lat="49.12784" lon="1.75543">
        <ele>109</ele>
        <time>2024-10-25T08:27:54Z</time>
      </trkpt>
      <trkpt lat="49.12722" lon="1.75455">
        <ele>100</ele>
        <time>2024-10-25T08:29:02Z</time>
      </trkpt>
      <trkpt lat="49.12717" lon="1.75441">
        <ele>98</ele>
        <time>2024-10-25T08:29:10Z</time>
      </trkpt>
      <trkpt lat="49.12719" lon="1.75428">
        <ele>97</ele>
        <time>2024-10-25T08:29:17Z</time>
      </trkpt>
      <trkpt lat="49.1275" lon="1.75386">
        <ele>96</ele>
        <time>2024-10-25T08:29:51Z</time>
      </trkpt>
      <trkpt lat="49.12727" lon="1.75273">
        <ele>86</ele>
        <time>2024-10-25T08:30:53Z</time>
      </trkpt>
      <trkpt lat="49.12711" lon="1.75239">
        <ele>84</ele>
        <time>2024-10-25T08:31:14Z</time>
      </trkpt>
      <trkpt lat="49.12694" lon="1.75228">
        <ele>83</ele>
        <time>2024-10-25T08:31:29Z</time>
      </trkpt>
      <trkpt lat="49.12683" lon="1.75207">
        <ele>83</ele>
        <time>2024-10-25T08:31:43Z</time>
      </trkpt>
      <trkpt lat="49.12678" lon="1.7518">
        <ele>82</ele>
        <time>2024-10-25T08:31:58Z</time>
      </trkpt>
      <trkpt lat="49.12666" lon="1.75149">
        <ele>83</ele>
        <time>2024-10-25T08:32:17Z</time>
      </trkpt>
      <trkpt lat="49.12667" lon="1.75112">
        <ele>84</ele>
        <time>2024-10-25T08:32:36Z</time>
      </trkpt>
      <trkpt lat="49.12645" lon="1.75104">
        <ele>85</ele>
        <time>2024-10-25T08:32:54Z</time>
      </trkpt>
      <trkpt lat="49.12632" lon="1.7508">
        <ele>86</ele>
        <time>2024-10-25T08:33:11Z</time>
      </trkpt>
      <trkpt lat="49.12634" lon="1.75046">
        <ele>88</ele>
        <time>2024-10-25T08:33:29Z</time>
      </trkpt>
      <trkpt lat="49.12622" lon="1.75035">
        <ele>89</ele>
        <time>2024-10-25T08:33:40Z</time>
      </trkpt>
      <trkpt lat="49.12618" lon="1.75023">
        <ele>90</ele>
        <time>2024-10-25T08:33:47Z</time>
      </trkpt>
      <trkpt lat="49.1262" lon="1.74981">
        <ele>93</ele>
        <time>2024-10-25T08:34:09Z</time>
      </trkpt>
      <trkpt lat="49.1261" lon="1.7494">
        <ele>96</ele>
        <time>2024-10-25T08:34:32Z</time>
      </trkpt>
      <trkpt lat="49.12585" lon="1.74888">
        <ele>102</ele>
        <time>2024-10-25T08:35:06Z</time>
      </trkpt>
      <trkpt lat="49.12578" lon="1.7486">
        <ele>105</ele>
        <time>2024-10-25T08:35:21Z</time>
      </trkpt>
      <trkpt lat="49.12569" lon="1.7485">
        <ele>107</ele>
        <time>2024-10-25T08:35:30Z</time>
      </trkpt>
      <trkpt lat="49.12547" lon="1.74808">
        <ele>111</ele>
        <time>2024-10-25T08:35:58Z</time>
      </trkpt>
      <trkpt lat="49.12539" lon="1.74801">
        <ele>112</ele>
        <time>2024-10-25T08:36:06Z</time>
      </trkpt>
      <trkpt lat="49.12527" lon="1.74798">
        <ele>113</ele>
        <time>2024-10-25T08:36:16Z</time>
      </trkpt>
      <trkpt lat="49.12522" lon="1.74782">
        <ele>114</ele>
        <time>2024-10-25T08:36:25Z</time>
      </trkpt>
      <trkpt lat="49.12524" lon="1.74737">
        <ele>117</ele>
        <time>2024-10-25T08:36:49Z</time>
      </trkpt>
      <trkpt lat="49.1252" lon="1.7473">
        <ele>118</ele>
        <time>2024-10-25T08:36:53Z</time>
      </trkpt>
      <trkpt lat="49.12516" lon="1.74731">
        <ele>118</ele>
        <time>2024-10-25T08:36:57Z</time>
      </trkpt>
      <trkpt lat="49.1252" lon="1.74734">
        <ele>117</ele>
        <time>2024-10-25T08:37:00Z</time>
      </trkpt>
      <trkpt lat="49.12525" lon="1.74732">
        <ele>118</ele>
        <time>2024-10-25T08:37:04Z</time>
      </trkpt>
      <trkpt lat="49.12531" lon="1.74721">
        <ele>118</ele>
        <time>2024-10-25T08:37:12Z</time>
      </trkpt>
      <trkpt lat="49.12523" lon="1.74694">
        <ele>119</ele>
        <time>2024-10-25T08:37:27Z</time>
      </trkpt>
      <trkpt lat="49.12533" lon="1.74685">
        <ele>119</ele>
        <time>2024-10-25T08:37:37Z</time>
      </trkpt>
      <trkpt lat="49.12543" lon="1.74638">
        <ele>118</ele>
        <time>2024-10-25T08:38:03Z</time>
      </trkpt>
      <trkpt lat="49.12574" lon="1.74545">
        <ele>111</ele>
        <time>2024-10-25T08:38:57Z</time>
      </trkpt>
      <trkpt lat="49.12574" lon="1.74526">
        <ele>110</ele>
        <time>2024-10-25T08:39:07Z</time>
      </trkpt>
      <trkpt lat="49.12583" lon="1.74483">
        <ele>106</ele>
        <time>2024-10-25T08:39:31Z</time>
      </trkpt>
      <trkpt lat="49.12578" lon="1.74478">
        <ele>106</ele>
        <time>2024-10-25T08:39:36Z</time>
      </trkpt>
      <trkpt lat="49.12544" lon="1.74475">
        <ele>106</ele>
        <time>2024-10-25T08:40:03Z</time>
      </trkpt>
      <trkpt lat="49.12528" lon="1.74469">
        <ele>106</ele>
        <time>2024-10-25T08:40:16Z</time>
      </trkpt>
      <trkpt lat="49.12514" lon="1.74408">
        <ele>102</ele>
        <time>2024-10-25T08:40:50Z</time>
      </trkpt>
      <trkpt lat="49.12486" lon="1.74343">
        <ele>100</ele>
        <time>2024-10-25T08:41:31Z</time>
      </trkpt>
      <trkpt lat="49.12446" lon="1.74301">
        <ele>100</ele>
        <time>2024-10-25T08:42:10Z</time>
      </trkpt>
      <trkpt lat="49.12436" lon="1.74295">
        <ele>101</ele>
        <time>2024-10-25T08:42:18Z</time>
      </trkpt>
      <trkpt lat="49.12418" lon="1.74254">
        <ele>101</ele>
        <time>2024-10-25T08:42:44Z</time>
      </trkpt>
      <trkpt lat="49.12398" lon="1.7423">
        <ele>100</ele>
        <time>2024-10-25T08:43:04Z</time>
      </trkpt>
      <trkpt lat="49.12385" lon="1.74195">
        <ele>98</ele>
        <time>2024-10-25T08:43:26Z</time>
      </trkpt>
      <trkpt lat="49.12362" lon="1.7416">
        <ele>96</ele>
        <time>2024-10-25T08:43:52Z</time>
      </trkpt>
      <trkpt lat="49.1236" lon="1.7414">
        <ele>95</ele>
        <time>2024-10-25T08:44:02Z</time>
      </trkpt>
      <trkpt lat="49.12368" lon="1.74114">
        <ele>92</ele>
        <time>2024-10-25T08:44:17Z</time>
      </trkpt>
      <trkpt lat="49.12371" lon="1.74085">
        <ele>90</ele>
        <time>2024-10-25T08:44:33Z</time>
      </trkpt>
      <trkpt lat="49.12366" lon="1.74035">
        <ele>92</ele>
        <time>2024-10-25T08:44:59Z</time>
      </trkpt>
      <trkpt lat="49.12369" lon="1.73993">
        <ele>94</ele>
        <time>2024-10-25T08:45:21Z</time>
      </trkpt>
      <trkpt lat="49.12351" lon="1.73971">
        <ele>97</ele>
        <time>2024-10-25T08:45:40Z</time>
      </trkpt>
      <trkpt lat="49.12333" lon="1.73933">
        <ele>102</ele>
        <time>2024-10-25T08:46:04Z</time>
      </trkpt>
      <trkpt lat="49.12313" lon="1.73915">
        <ele>104</ele>
        <time>2024-10-25T08:46:23Z</time>
      </trkpt>
      <trkpt lat="49.12305" lon="1.739">
        <ele>105</ele>
        <time>2024-10-25T08:46:33Z</time>
      </trkpt>
      <trkpt lat="49.12277" lon="1.73883">
        <ele>106</ele>
        <time>2024-10-25T08:46:57Z</time>
      </trkpt>
      <trkpt lat="49.12262" lon="1.73852">
        <ele>110</ele>
        <time>2024-10-25T08:47:17Z</time>
      </trkpt>
      <trkpt lat="49.12208" lon="1.73787">
        <ele>117</ele>
        <time>2024-10-25T08:48:12Z</time>
      </trkpt>
      <trkpt lat="49.12196" lon="1.7375">
        <ele>121</ele>
        <time>2024-10-25T08:48:34Z</time>
      </trkpt>
      <trkpt lat="49.12192" lon="1.73721">
        <ele>123</ele>
        <time>2024-10-25T08:48:49Z</time>
      </trkpt>
      <trkpt lat="49.12177" lon="1.73677">
        <ele>126</ele>
        <time>2024-10-25T08:49:15Z</time>
      </trkpt>
      <trkpt lat="49.12172" lon="1.73624">
        <ele>128</ele>
        <time>2024-10-25T08:49:44Z</time>
      </trkpt>
      <trkpt lat="49.12159" lon="1.73602">
        <ele>129</ele>
        <time>2024-10-25T08:49:59Z</time>
      </trkpt>
      <trkpt lat="49.12134" lon="1.73518">
        <ele>129</ele>
        <time>2024-10-25T08:50:47Z</time>
      </trkpt>
      <trkpt lat="49.12147" lon="1.73542">
        <ele>129</ele>
        <time>2024-10-25T08:51:04Z</time>
      </trkpt>
      <trkpt lat="49.12162" lon="1.73558">
        <ele>129</ele>
        <time>2024-10-25T08:51:18Z</time>
      </trkpt>
      <trkpt lat="49.12179" lon="1.73566">
        <ele>129</ele>
        <time>2024-10-25T08:51:33Z</time>
      </trkpt>
      <trkpt lat="49.12194" lon="1.73585">
        <ele>129</ele>
        <time>2024-10-25T08:51:48Z</time>
      </trkpt>
      <trkpt lat="49.12209" lon="1.73595">
        <ele>129</ele>
        <time>2024-10-25T08:52:01Z</time>
      </trkpt>
      <trkpt lat="49.12219" lon="1.73596">
        <ele>129</ele>
        <time>2024-10-25T08:52:09Z</time>
      </trkpt>
      <trkpt lat="49.12234" lon="1.73614">
        <ele>129</ele>
        <time>2024-10-25T08:52:25Z</time>
      </trkpt>
      <trkpt lat="49.12275" lon="1.73641">
        <ele>129</ele>
        <time>2024-10-25T08:53:00Z</time>
      </trkpt>
      <trkpt lat="49.12289" lon="1.73646">
        <ele>128</ele>
        <time>2024-10-25T08:53:12Z</time>
      </trkpt>
      <trkpt lat="49.12306" lon="1.73663">
        <ele>128</ele>
        <time>2024-10-25T08:53:28Z</time>
      </trkpt>
      <trkpt lat="49.12319" lon="1.73659">
        <ele>128</ele>
        <time>2024-10-25T08:53:39Z</time>
      </trkpt>
      <trkpt lat="49.12333" lon="1.73648">
        <ele>128</ele>
        <time>2024-10-25T08:53:51Z</time>
      </trkpt>
      <trkpt lat="49.12354" lon="1.73598">
        <ele>128</ele>
        <time>2024-10-25T08:54:23Z</time>
      </trkpt>
      <trkpt lat="49.12386" lon="1.73558">
        <ele>126</ele>
        <time>2024-10-25T08:54:56Z</time>
      </trkpt>
      <trkpt lat="49.1241" lon="1.73486">
        <ele>124</ele>
        <time>2024-10-25T08:55:38Z</time>
      </trkpt>
      <trkpt lat="49.12418" lon="1.73448">
        <ele>123</ele>
        <time>2024-10-25T08:55:59Z</time>
      </trkpt>
      <trkpt lat="49.12452" lon="1.73204">
        <ele>124</ele>
        <time>2024-10-25T08:58:10Z</time>
      </trkpt>
      <trkpt lat="49.12447" lon="1.72974">
        <ele>128</ele>
        <time>2024-10-25T09:00:10Z</time>
      </trkpt>
      <trkpt lat="49.12469" lon="1.72722">
        <ele>132</ele>
        <time>2024-10-25T09:02:23Z</time>
      </trkpt>
      <trkpt lat="49.1247" lon="1.72611">
        <ele>133</ele>
        <time>2024-10-25T09:03:22Z</time>
      </trkpt>
      <trkpt lat="49.12476" lon="1.72564">
        <ele>134</ele>
        <time>2024-10-25T09:03:47Z</time>
      </trkpt>
      <trkpt lat="49.12477" lon="1.72533">
        <ele>133</ele>
        <time>2024-10-25T09:04:03Z</time>
      </trkpt>
      <trkpt lat="49.12468" lon="1.72484">
        <ele>133</ele>
        <time>2024-10-25T09:04:30Z</time>
      </trkpt>
      <trkpt lat="49.12633" lon="1.72335">
        <ele>135</ele>
        <time>2024-10-25T09:07:03Z</time>
      </trkpt>
      <trkpt lat="49.12702" lon="1.72282">
        <ele>135</ele>
        <time>2024-10-25T09:08:05Z</time>
      </trkpt>
      <trkpt lat="49.12765" lon="1.72227">
        <ele>135</ele>
        <time>2024-10-25T09:09:03Z</time>
      </trkpt>
      <trkpt lat="49.12856" lon="1.72133">
        <ele>135</ele>
        <time>2024-10-25T09:10:31Z</time>
      </trkpt>
      <trkpt lat="49.12901" lon="1.72063">
        <ele>134</ele>
        <time>2024-10-25T09:11:22Z</time>
      </trkpt>
      <trkpt lat="49.1293" lon="1.7203">
        <ele>134</ele>
        <time>2024-10-25T09:11:51Z</time>
      </trkpt>
      <trkpt lat="49.13006" lon="1.71962">
        <ele>135</ele>
        <time>2024-10-25T09:13:02Z</time>
      </trkpt>
      <trkpt lat="49.13046" lon="1.7193">
        <ele>136</ele>
        <time>2024-10-25T09:13:38Z</time>
      </trkpt>
      <trkpt lat="49.13073" lon="1.71914">
        <ele>136</ele>
        <time>2024-10-25T09:14:01Z</time>
      </trkpt>
      <trkpt lat="49.13096" lon="1.71889">
        <ele>136</ele>
        <time>2024-10-25T09:14:24Z</time>
      </trkpt>
      <trkpt lat="49.13186" lon="1.7182">
        <ele>137</ele>
        <time>2024-10-25T09:15:44Z</time>
      </trkpt>
      <trkpt lat="49.13197" lon="1.71819">
        <ele>137</ele>
        <time>2024-10-25T09:15:53Z</time>
      </trkpt>
      <trkpt lat="49.13232" lon="1.71792">
        <ele>136</ele>
        <time>2024-10-25T09:16:25Z</time>
      </trkpt>
      <trkpt lat="49.13241" lon="1.71784">
        <ele>136</ele>
        <time>2024-10-25T09:16:33Z</time>
      </trkpt>
      <trkpt lat="49.13246" lon="1.71768">
        <ele>136</ele>
        <time>2024-10-25T09:16:42Z</time>
      </trkpt>
      <trkpt lat="49.13262" lon="1.71743">
        <ele>136</ele>
        <time>2024-10-25T09:17:01Z</time>
      </trkpt>
      <trkpt lat="49.13271" lon="1.71738">
        <ele>135</ele>
        <time>2024-10-25T09:17:08Z</time>
      </trkpt>
      <trkpt lat="49.13301" lon="1.7174">
        <ele>135</ele>
        <time>2024-10-25T09:17:32Z</time>
      </trkpt>
      <trkpt lat="49.1354" lon="1.71782">
        <ele>127</ele>
        <time>2024-10-25T09:20:45Z</time>
      </trkpt>
      <trkpt lat="49.1359" lon="1.71786">
        <ele>126</ele>
        <time>2024-10-25T09:21:25Z</time>
      </trkpt>
      <trkpt lat="49.13672" lon="1.71805">
        <ele>122</ele>
        <time>2024-10-25T09:22:31Z</time>
      </trkpt>
      <trkpt lat="49.13731" lon="1.71828">
        <ele>120</ele>
        <time>2024-10-25T09:23:20Z</time>
      </trkpt>
      <trkpt lat="49.13755" lon="1.71831">
        <ele>119</ele>
        <time>2024-10-25T09:23:39Z</time>
      </trkpt>
      <trkpt lat="49.13805" lon="1.71828">
        <ele>118</ele>
        <time>2024-10-25T09:24:19Z</time>
      </trkpt>
      <trkpt lat="49.1387" lon="1.71845">
        <ele>117</ele>
        <time>2024-10-25T09:25:12Z</time>
      </trkpt>
      <trkpt lat="49.13923" lon="1.71846">
        <ele>118</ele>
        <time>2024-10-25T09:25:55Z</time>
      </trkpt>
      <trkpt lat="49.1393" lon="1.71838">
        <ele>117</ele>
        <time>2024-10-25T09:26:02Z</time>
      </trkpt>
      <trkpt lat="49.13935" lon="1.7182">
        <ele>116</ele>
        <time>2024-10-25T09:26:12Z</time>
      </trkpt>
      <trkpt lat="49.13946" lon="1.71749">
        <ele>111</ele>
        <time>2024-10-25T09:26:50Z</time>
      </trkpt>
      <trkpt lat="49.13961" lon="1.71715">
        <ele>110</ele>
        <time>2024-10-25T09:27:12Z</time>
      </trkpt>
      <trkpt lat="49.13976" lon="1.71704">
        <ele>109</ele>
        <time>2024-10-25T09:27:25Z</time>
      </trkpt>
      <trkpt lat="49.13995" lon="1.71702">
        <ele>110</ele>
        <time>2024-10-25T09:27:40Z</time>
      </trkpt>
      <trkpt lat="49.14025" lon="1.71709">
        <ele>110</ele>
        <time>2024-10-25T09:28:04Z</time>
      </trkpt>
      <trkpt lat="49.14038" lon="1.71707">
        <ele>109</ele>
        <time>2024-10-25T09:28:15Z</time>
      </trkpt>
      <trkpt lat="49.14052" lon="1.71697">
        <ele>108</ele>
        <time>2024-10-25T09:28:27Z</time>
      </trkpt>
      <trkpt lat="49.14068" lon="1.71659">
        <ele>105</ele>
        <time>2024-10-25T09:28:51Z</time>
      </trkpt>
      <trkpt lat="49.14076" lon="1.71627">
        <ele>102</ele>
        <time>2024-10-25T09:29:09Z</time>
      </trkpt>
      <trkpt lat="49.14074" lon="1.71518">
        <ele>92</ele>
        <time>2024-10-25T09:30:06Z</time>
      </trkpt>
      <trkpt lat="49.14051" lon="1.71502">
        <ele>92</ele>
        <time>2024-10-25T09:30:26Z</time>
      </trkpt>
      <trkpt lat="49.14005" lon="1.71479">
        <ele>94</ele>
        <time>2024-10-25T09:31:05Z</time>
      </trkpt>
      <trkpt lat="49.13994" lon="1.71484">
        <ele>95</ele>
        <time>2024-10-25T09:31:14Z</time>
      </trkpt>
      <trkpt lat="49.14002" lon="1.71487">
        <ele>95</ele>
        <time>2024-10-25T09:31:21Z</time>
      </trkpt>
      <trkpt lat="49.14008" lon="1.71481">
        <ele>94</ele>
        <time>2024-10-25T09:31:27Z</time>
      </trkpt>
      <trkpt lat="49.1401" lon="1.71488">
        <ele>94</ele>
        <time>2024-10-25T09:31:31Z</time>
      </trkpt>
      <trkpt lat="49.1401" lon="1.71483">
        <ele>94</ele>
        <time>2024-10-25T09:31:33Z</time>
      </trkpt>
      <trkpt lat="49.14005" lon="1.71487">
        <ele>95</ele>
        <time>2024-10-25T09:31:38Z</time>
      </trkpt>
      <trkpt lat="49.13995" lon="1.71484">
        <ele>95</ele>
        <time>2024-10-25T09:31:46Z</time>
      </trkpt>
      <trkpt lat="49.13993" lon="1.71488">
        <ele>96</ele>
        <time>2024-10-25T09:31:48Z</time>
      </trkpt>
      <trkpt lat="49.13992" lon="1.71483">
        <ele>96</ele>
        <time>2024-10-25T09:31:51Z</time>
      </trkpt>
      <trkpt lat="49.13993" lon="1.71486">
        <ele>96</ele>
        <time>2024-10-25T09:31:53Z</time>
      </trkpt>
      <trkpt lat="49.13989" lon="1.71486">
        <ele>96</ele>
        <time>2024-10-25T09:31:56Z</time>
      </trkpt>
      <trkpt lat="49.13995" lon="1.7149">
        <ele>95</ele>
        <time>2024-10-25T09:32:01Z</time>
      </trkpt>
      <trkpt lat="49.13997" lon="1.71485">
        <ele>95</ele>
        <time>2024-10-25T09:32:05Z</time>
      </trkpt>
      <trkpt lat="49.13989" lon="1.71483">
        <ele>96</ele>
        <time>2024-10-25T09:32:11Z</time>
      </trkpt>
      <trkpt lat="49.13997" lon="1.7147">
        <ele>95</ele>
        <time>2024-10-25T09:32:20Z</time>
      </trkpt>
      <trkpt lat="49.13999" lon="1.71451">
        <ele>95</ele>
        <time>2024-10-25T09:32:30Z</time>
      </trkpt>
      <trkpt lat="49.1401" lon="1.7142">
        <ele>93</ele>
        <time>2024-10-25T09:32:49Z</time>
      </trkpt>
      <trkpt lat="49.1405" lon="1.71349">
        <ele>92</ele>
        <time>2024-10-25T09:33:38Z</time>
      </trkpt>
      <trkpt lat="49.14053" lon="1.71326">
        <ele>92</ele>
        <time>2024-10-25T09:33:50Z</time>
      </trkpt>
      <trkpt lat="49.14044" lon="1.71298">
        <ele>95</ele>
        <time>2024-10-25T09:34:07Z</time>
      </trkpt>
      <trkpt lat="49.14042" lon="1.71267">
        <ele>98</ele>
        <time>2024-10-25T09:34:23Z</time>
      </trkpt>
      <trkpt lat="49.1408" lon="1.71196">
        <ele>100</ele>
        <time>2024-10-25T09:35:11Z</time>
      </trkpt>
      <trkpt lat="49.14082" lon="1.71182">
        <ele>101</ele>
        <time>2024-10-25T09:35:18Z</time>
      </trkpt>
      <trkpt lat="49.14078" lon="1.71148">
        <ele>105</ele>
        <time>2024-10-25T09:35:37Z</time>
      </trkpt>
      <trkpt lat="49.14105" lon="1.71106">
        <ele>109</ele>
        <time>2024-10-25T09:36:07Z</time>
      </trkpt>
      <trkpt lat="49.14123" lon="1.71063">
        <ele>112</ele>
        <time>2024-10-25T09:36:34Z</time>
      </trkpt>
      <trkpt lat="49.14121" lon="1.71039">
        <ele>115</ele>
        <time>2024-10-25T09:36:47Z</time>
      </trkpt>
      <trkpt lat="49.14139" lon="1.7103">
        <ele>114</ele>
        <time>2024-10-25T09:37:02Z</time>
      </trkpt>
      <trkpt lat="49.14162" lon="1.71003">
        <ele>115</ele>
        <time>2024-10-25T09:37:25Z</time>
      </trkpt>
      <trkpt lat="49.14166" lon="1.70973">
        <ele>116</ele>
        <time>2024-10-25T09:37:41Z</time>
      </trkpt>
      <trkpt lat="49.14191" lon="1.70939">
        <ele>117</ele>
        <time>2024-10-25T09:38:08Z</time>
      </trkpt>
      <trkpt lat="49.14224" lon="1.70865">
        <ele>118</ele>
        <time>2024-10-25T09:38:55Z</time>
      </trkpt>
      <trkpt lat="49.14328" lon="1.70699">
        <ele>117</ele>
        <time>2024-10-25T09:40:55Z</time>
      </trkpt>
      <trkpt lat="49.14352" lon="1.70612">
        <ele>116</ele>
        <time>2024-10-25T09:41:45Z</time>
      </trkpt>
      <trkpt lat="49.14361" lon="1.70611">
        <ele>116</ele>
        <time>2024-10-25T09:41:52Z</time>
      </trkpt>
      <trkpt lat="49.14386" lon="1.7062">
        <ele>116</ele>
        <time>2024-10-25T09:42:13Z</time>
      </trkpt>
      <trkpt lat="49.14464" lon="1.70538">
        <ele>115</ele>
        <time>2024-10-25T09:43:28Z</time>
      </trkpt>
      <trkpt lat="49.14508" lon="1.70481">
        <ele>115</ele>
        <time>2024-10-25T09:44:15Z</time>
      </trkpt>
      <trkpt lat="49.14535" lon="1.70455">
        <ele>114</ele>
        <time>2024-10-25T09:44:40Z</time>
      </trkpt>
      <trkpt lat="49.14576" lon="1.70399">
        <ele>114</ele>
        <time>2024-10-25T09:45:24Z</time>
      </trkpt>
      <trkpt lat="49.14611" lon="1.70363">
        <ele>113</ele>
        <time>2024-10-25T09:45:58Z</time>
      </trkpt>
      <trkpt lat="49.14643" lon="1.70303">
        <ele>113</ele>
        <time>2024-10-25T09:46:38Z</time>
      </trkpt>
      <trkpt lat="49.14696" lon="1.70224">
        <ele>109</ele>
        <time>2024-10-25T09:47:38Z</time>
      </trkpt>
      <trkpt lat="49.14826" lon="1.70063">
        <ele>95</ele>
        <time>2024-10-25T09:49:52Z</time>
      </trkpt>
      <trkpt lat="49.14843" lon="1.70019">
        <ele>91</ele>
        <time>2024-10-25T09:50:18Z</time>
      </trkpt>
      <trkpt lat="49.14858" lon="1.69956">
        <ele>88</ele>
        <time>2024-10-25T09:50:54Z</time>
      </trkpt>
      <trkpt lat="49.14886" lon="1.699">
        <ele>84</ele>
        <time>2024-10-25T09:51:30Z</time>
      </trkpt>
      <trkpt lat="49.14904" lon="1.69854">
        <ele>79</ele>
        <time>2024-10-25T09:51:59Z</time>
      </trkpt>
      <trkpt lat="49.14931" lon="1.69764">
        <ele>72</ele>
        <time>2024-10-25T09:52:50Z</time>
      </trkpt>
      <trkpt lat="49.1494" lon="1.69771">
        <ele>71</ele>
        <time>2024-10-25T09:52:58Z</time>
      </trkpt>
      <trkpt lat="49.14917" lon="1.69762">
        <ele>73</ele>
        <time>2024-10-25T09:53:18Z</time>
      </trkpt>
      <trkpt lat="49.14905" lon="1.69749">
        <ele>73</ele>
        <time>2024-10-25T09:53:29Z</time>
      </trkpt>
      <trkpt lat="49.14914" lon="1.6976">
        <ele>73</ele>
        <time>2024-10-25T09:53:39Z</time>
      </trkpt>
      <trkpt lat="49.14926" lon="1.6976">
        <ele>72</ele>
        <time>2024-10-25T09:53:48Z</time>
      </trkpt>
      <trkpt lat="49.14934" lon="1.69753">
        <ele>71</ele>
        <time>2024-10-25T09:53:55Z</time>
      </trkpt>
      <trkpt lat="49.14944" lon="1.69728">
        <ele>67</ele>
        <time>2024-10-25T09:54:11Z</time>
      </trkpt>
      <trkpt lat="49.14978" lon="1.697">
        <ele>61</ele>
        <time>2024-10-25T09:54:42Z</time>
      </trkpt>
      <trkpt lat="49.15012" lon="1.69691">
        <ele>57</ele>
        <time>2024-10-25T09:55:09Z</time>
      </trkpt>
      <trkpt lat="49.15026" lon="1.69681">
        <ele>55</ele>
        <time>2024-10-25T09:55:22Z</time>
      </trkpt>
      <trkpt lat="49.15038" lon="1.69683">
        <ele>54</ele>
        <time>2024-10-25T09:55:31Z</time>
      </trkpt>
      <trkpt lat="49.15051" lon="1.69677">
        <ele>53</ele>
        <time>2024-10-25T09:55:42Z</time>
      </trkpt>
      <trkpt lat="49.15065" lon="1.69676">
        <ele>52</ele>
        <time>2024-10-25T09:55:54Z</time>
      </trkpt>
      <trkpt lat="49.15093" lon="1.69691">
        <ele>50</ele>
        <time>2024-10-25T09:56:17Z</time>
      </trkpt>
      <trkpt lat="49.15101" lon="1.69728">
        <ele>51</ele>
        <time>2024-10-25T09:56:38Z</time>
      </trkpt>
      <trkpt lat="49.15128" lon="1.69789">
        <ele>52</ele>
        <time>2024-10-25T09:57:16Z</time>
      </trkpt>
      <trkpt lat="49.15138" lon="1.6983">
        <ele>53</ele>
        <time>2024-10-25T09:57:39Z</time>
      </trkpt>
      <trkpt lat="49.15167" lon="1.69893">
        <ele>49</ele>
        <time>2024-10-25T09:58:20Z</time>
      </trkpt>
      <trkpt lat="49.1519" lon="1.69965">
        <ele>48</ele>
        <time>2024-10-25T09:59:01Z</time>
      </trkpt>
      <trkpt lat="49.15201" lon="1.69974">
        <ele>47</ele>
        <time>2024-10-25T09:59:11Z</time>
      </trkpt>
      <trkpt lat="49.15209" lon="1.69978">
        <ele>46</ele>
        <time>2024-10-25T09:59:18Z</time>
      </trkpt>
      <trkpt lat="49.15231" lon="1.69976">
        <ele>44</ele>
        <time>2024-10-25T09:59:36Z</time>
      </trkpt>
      <trkpt lat="49.15246" lon="1.69979">
        <ele>42</ele>
        <time>2024-10-25T09:59:48Z</time>
      </trkpt>
      <trkpt lat="49.15276" lon="1.69994">
        <ele>42</ele>
        <time>2024-10-25T10:00:13Z</time>
      </trkpt>
      <trkpt lat="49.15355" lon="1.70017">
        <ele>47</ele>
        <time>2024-10-25T10:01:18Z</time>
      </trkpt>
      <trkpt lat="49.15385" lon="1.70035">
        <ele>54</ele>
        <time>2024-10-25T10:01:43Z</time>
      </trkpt>
      <trkpt lat="49.15407" lon="1.70023">
        <ele>58</ele>
        <time>2024-10-25T10:02:02Z</time>
      </trkpt>
      <trkpt lat="49.15433" lon="1.69968">
        <ele>63</ele>
        <time>2024-10-25T10:02:38Z</time>
      </trkpt>
      <trkpt lat="49.15446" lon="1.69949">
        <ele>66</ele>
        <time>2024-10-25T10:02:52Z</time>
      </trkpt>
      <trkpt lat="49.15452" lon="1.69927">
        <ele>67</ele>
        <time>2024-10-25T10:03:05Z</time>
      </trkpt>
      <trkpt lat="49.15465" lon="1.69903">
        <ele>70</ele>
        <time>2024-10-25T10:03:21Z</time>
      </trkpt>
      <trkpt lat="49.15487" lon="1.69913">
        <ele>76</ele>
        <time>2024-10-25T10:03:39Z</time>
      </trkpt>
      <trkpt lat="49.15528" lon="1.6995">
        <ele>84</ele>
        <time>2024-10-25T10:04:17Z</time>
      </trkpt>
      <trkpt lat="49.15564" lon="1.69971">
        <ele>91</ele>
        <time>2024-10-25T10:04:48Z</time>
      </trkpt>
      <trkpt lat="49.1558" lon="1.69987">
        <ele>94</ele>
        <time>2024-10-25T10:05:04Z</time>
      </trkpt>
      <trkpt lat="49.15603" lon="1.70038">
        <ele>96</ele>
        <time>2024-10-25T10:05:36Z</time>
      </trkpt>
      <trkpt lat="49.15614" lon="1.70078">
        <ele>98</ele>
        <time>2024-10-25T10:05:59Z</time>
      </trkpt>
      <trkpt lat="49.15631" lon="1.70112">
        <ele>98</ele>
        <time>2024-10-25T10:06:21Z</time>
      </trkpt>
      <trkpt lat="49.15636" lon="1.70135">
        <ele>97</ele>
        <time>2024-10-25T10:06:34Z</time>
      </trkpt>
      <trkpt lat="49.15636" lon="1.7018">
        <ele>95</ele>
        <time>2024-10-25T10:06:57Z</time>
      </trkpt>
      <trkpt lat="49.15642" lon="1.70199">
        <ele>94</ele>
        <time>2024-10-25T10:07:08Z</time>
      </trkpt>
      <trkpt lat="49.1568" lon="1.70247">
        <ele>92</ele>
        <time>2024-10-25T10:07:48Z</time>
      </trkpt>
      <trkpt lat="49.15709" lon="1.70271">
        <ele>92</ele>
        <time>2024-10-25T10:08:14Z</time>
      </trkpt>
      <trkpt lat="49.15725" lon="1.70279">
        <ele>92</ele>
        <time>2024-10-25T10:08:28Z</time>
      </trkpt>
      <trkpt lat="49.15742" lon="1.70296">
        <ele>92</ele>
        <time>2024-10-25T10:08:44Z</time>
      </trkpt>
      <trkpt lat="49.1576" lon="1.70331">
        <ele>89</ele>
        <time>2024-10-25T10:09:07Z</time>
      </trkpt>
      <trkpt lat="49.15795" lon="1.70372">
        <ele>90</ele>
        <time>2024-10-25T10:09:43Z</time>
      </trkpt>
      <trkpt lat="49.15829" lon="1.70422">
        <ele>89</ele>
        <time>2024-10-25T10:10:20Z</time>
      </trkpt>
      <trkpt lat="49.15837" lon="1.70441">
        <ele>90</ele>
        <time>2024-10-25T10:10:32Z</time>
      </trkpt>
      <trkpt lat="49.15868" lon="1.70474">
        <ele>91</ele>
        <time>2024-10-25T10:11:02Z</time>
      </trkpt>
      <trkpt lat="49.15886" lon="1.70513">
        <ele>90</ele>
        <time>2024-10-25T10:11:27Z</time>
      </trkpt>
      <trkpt lat="49.15915" lon="1.70559">
        <ele>91</ele>
        <time>2024-10-25T10:12:01Z</time>
      </trkpt>
      <trkpt lat="49.15985" lon="1.70634">
        <ele>93</ele>
        <time>2024-10-25T10:13:09Z</time>
      </trkpt>
      <trkpt lat="49.16027" lon="1.70674">
        <ele>96</ele>
        <time>2024-10-25T10:13:49Z</time>
      </trkpt>
      <trkpt lat="49.16043" lon="1.70683">
        <ele>97</ele>
        <time>2024-10-25T10:14:03Z</time>
      </trkpt>
      <trkpt lat="49.16076" lon="1.70718">
        <ele>98</ele>
        <time>2024-10-25T10:14:35Z</time>
      </trkpt>
      <trkpt lat="49.16121" lon="1.70799">
        <ele>98</ele>
        <time>2024-10-25T10:15:30Z</time>
      </trkpt>
      <trkpt lat="49.16152" lon="1.70886">
        <ele>96</ele>
        <time>2024-10-25T10:16:22Z</time>
      </trkpt>
      <trkpt lat="49.16155" lon="1.70931">
        <ele>94</ele>
        <time>2024-10-25T10:16:46Z</time>
      </trkpt>
      <trkpt lat="49.16149" lon="1.70968">
        <ele>92</ele>
        <time>2024-10-25T10:17:06Z</time>
      </trkpt>
      <trkpt lat="49.1617" lon="1.70988">
        <ele>93</ele>
        <time>2024-10-25T10:17:26Z</time>
      </trkpt>
      <trkpt lat="49.16208" lon="1.70995">
        <ele>94</ele>
        <time>2024-10-25T10:17:56Z</time>
      </trkpt>
      <trkpt lat="49.16232" lon="1.71014">
        <ele>95</ele>
        <time>2024-10-25T10:18:18Z</time>
      </trkpt>
      <trkpt lat="49.16242" lon="1.71042">
        <ele>96</ele>
        <time>2024-10-25T10:18:35Z</time>
      </trkpt>
      <trkpt lat="49.16244" lon="1.71077">
        <ele>96</ele>
        <time>2024-10-25T10:18:53Z</time>
      </trkpt>
      <trkpt lat="49.16249" lon="1.71089">
        <ele>97</ele>
        <time>2024-10-25T10:19:01Z</time>
      </trkpt>
      <trkpt lat="49.16261" lon="1.71094">
        <ele>99</ele>
        <time>2024-10-25T10:19:11Z</time>
      </trkpt>
      <trkpt lat="49.16357" lon="1.71042">
        <ele>106</ele>
        <time>2024-10-25T10:20:32Z</time>
      </trkpt>
      <trkpt lat="49.16411" lon="1.71033">
        <ele>110</ele>
        <time>2024-10-25T10:21:16Z</time>
      </trkpt>
      <trkpt lat="49.16563" lon="1.70992">
        <ele>114</ele>
        <time>2024-10-25T10:23:19Z</time>
      </trkpt>
      <trkpt lat="49.16623" lon="1.70956">
        <ele>116</ele>
        <time>2024-10-25T10:24:11Z</time>
      </trkpt>
      <trkpt lat="49.16623" lon="1.70953">
        <ele>116</ele>
        <time>2024-10-25T10:24:12Z</time>
      </trkpt>
      <trkpt lat="49.16634" lon="1.70956">
        <ele>117</ele>
        <time>2024-10-25T10:24:21Z</time>
      </trkpt>
      <trkpt lat="49.16655" lon="1.7095">
        <ele>118</ele>
        <time>2024-10-25T10:24:38Z</time>
      </trkpt>
      <trkpt lat="49.16711" lon="1.70959">
        <ele>120</ele>
        <time>2024-10-25T10:25:23Z</time>
      </trkpt>
      <trkpt lat="49.16739" lon="1.70968">
        <ele>121</ele>
        <time>2024-10-25T10:25:46Z</time>
      </trkpt>
      <trkpt lat="49.16757" lon="1.7098">
        <ele>122</ele>
        <time>2024-10-25T10:26:02Z</time>
      </trkpt>
      <trkpt lat="49.16986" lon="1.71316">
        <ele>132</ele>
        <time>2024-10-25T10:30:16Z</time>
      </trkpt>
      <trkpt lat="49.17068" lon="1.71413">
        <ele>139</ele>
        <time>2024-10-25T10:31:39Z</time>
      </trkpt>
      <trkpt lat="49.17101" lon="1.71504">
        <ele>148</ele>
        <time>2024-10-25T10:32:34Z</time>
      </trkpt>
      <trkpt lat="49.17119" lon="1.71539">
        <ele>151</ele>
        <time>2024-10-25T10:32:57Z</time>
      </trkpt>
      <trkpt lat="49.17127" lon="1.71547">
        <ele>151</ele>
        <time>2024-10-25T10:33:05Z</time>
      </trkpt>
      <trkpt lat="49.17138" lon="1.71571">
        <ele>153</ele>
        <time>2024-10-25T10:33:20Z</time>
      </trkpt>
      <trkpt lat="49.17151" lon="1.71586">
        <ele>153</ele>
        <time>2024-10-25T10:33:33Z</time>
      </trkpt>
      <trkpt lat="49.17163" lon="1.71614">
        <ele>154</ele>
        <time>2024-10-25T10:33:51Z</time>
      </trkpt>
      <trkpt lat="49.17196" lon="1.71658">
        <ele>156</ele>
        <time>2024-10-25T10:34:26Z</time>
      </trkpt>
      <trkpt lat="49.17203" lon="1.71674">
        <ele>156</ele>
        <time>2024-10-25T10:34:36Z</time>
      </trkpt>
      <trkpt lat="49.17218" lon="1.71681">
        <ele>157</ele>
        <time>2024-10-25T10:34:48Z</time>
      </trkpt>
      <trkpt lat="49.17275" lon="1.71727">
        <ele>159</ele>
        <time>2024-10-25T10:35:40Z</time>
      </trkpt>
      <trkpt lat="49.17299" lon="1.71764">
        <ele>160</ele>
        <time>2024-10-25T10:36:07Z</time>
      </trkpt>
      <trkpt lat="49.17343" lon="1.71807">
        <ele>160</ele>
        <time>2024-10-25T10:36:49Z</time>
      </trkpt>
      <trkpt lat="49.1735" lon="1.7183">
        <ele>160</ele>
        <time>2024-10-25T10:37:02Z</time>
      </trkpt>
      <trkpt lat="49.17354" lon="1.71828">
        <ele>160</ele>
        <time>2024-10-25T10:37:06Z</time>
      </trkpt>
      <trkpt lat="49.17372" lon="1.7184">
        <ele>160</ele>
        <time>2024-10-25T10:37:21Z</time>
      </trkpt>
      <trkpt lat="49.17389" lon="1.71864">
        <ele>160</ele>
        <time>2024-10-25T10:37:40Z</time>
      </trkpt>
      <trkpt lat="49.17419" lon="1.7189">
        <ele>160</ele>
        <time>2024-10-25T10:38:07Z</time>
      </trkpt>
      <trkpt lat="49.17436" lon="1.71911">
        <ele>159</ele>
        <time>2024-10-25T10:38:25Z</time>
      </trkpt>
      <trkpt lat="49.17452" lon="1.71922">
        <ele>158</ele>
        <time>2024-10-25T10:38:39Z</time>
      </trkpt>
      <trkpt lat="49.17464" lon="1.71938">
        <ele>157</ele>
        <time>2024-10-25T10:38:52Z</time>
      </trkpt>
      <trkpt lat="49.17494" lon="1.71946">
        <ele>156</ele>
        <time>2024-10-25T10:39:16Z</time>
      </trkpt>
      <trkpt lat="49.17514" lon="1.71946">
        <ele>155</ele>
        <time>2024-10-25T10:39:32Z</time>
      </trkpt>
      <trkpt lat="49.17551" lon="1.71944">
        <ele>152</ele>
        <time>2024-10-25T10:40:02Z</time>
      </trkpt>
      <trkpt lat="49.17582" lon="1.71937">
        <ele>149</ele>
        <time>2024-10-25T10:40:27Z</time>
      </trkpt>
      <trkpt lat="49.17627" lon="1.71977">
        <ele>144</ele>
        <time>2024-10-25T10:41:09Z</time>
      </trkpt>
      <trkpt lat="49.17632" lon="1.71995">
        <ele>143</ele>
        <time>2024-10-25T10:41:19Z</time>
      </trkpt>
      <trkpt lat="49.17627" lon="1.72076">
        <ele>136</ele>
        <time>2024-10-25T10:42:01Z</time>
      </trkpt>
      <trkpt lat="49.1763" lon="1.72128">
        <ele>132</ele>
        <time>2024-10-25T10:42:29Z</time>
      </trkpt>
      <trkpt lat="49.1764" lon="1.72149">
        <ele>129</ele>
        <time>2024-10-25T10:42:42Z</time>
      </trkpt>
      <trkpt lat="49.17653" lon="1.72191">
        <ele>125</ele>
        <time>2024-10-25T10:43:07Z</time>
      </trkpt>
      <trkpt lat="49.17651" lon="1.72198">
        <ele>125</ele>
        <time>2024-10-25T10:43:11Z</time>
      </trkpt>
      <trkpt lat="49.17663" lon="1.72224">
        <ele>124</ele>
        <time>2024-10-25T10:43:27Z</time>
      </trkpt>
      <trkpt lat="49.17676" lon="1.72273">
        <ele>122</ele>
        <time>2024-10-25T10:43:55Z</time>
      </trkpt>
      <trkpt lat="49.17744" lon="1.72437">
        <ele>126</ele>
        <time>2024-10-25T10:45:37Z</time>
      </trkpt>
      <trkpt lat="49.1775" lon="1.7247">
        <ele>129</ele>
        <time>2024-10-25T10:45:55Z</time>
      </trkpt>
      <trkpt lat="49.17739" lon="1.725">
        <ele>131</ele>
        <time>2024-10-25T10:46:13Z</time>
      </trkpt>
      <trkpt lat="49.17728" lon="1.72512">
        <ele>131</ele>
        <time>2024-10-25T10:46:23Z</time>
      </trkpt>
      <trkpt lat="49.17705" lon="1.72559">
        <ele>133</ele>
        <time>2024-10-25T10:46:54Z</time>
      </trkpt>
      <trkpt lat="49.17699" lon="1.72587">
        <ele>135</ele>
        <time>2024-10-25T10:47:09Z</time>
      </trkpt>
      <trkpt lat="49.17658" lon="1.72678">
        <ele>137</ele>
        <time>2024-10-25T10:48:07Z</time>
      </trkpt>
      <trkpt lat="49.17647" lon="1.7272">
        <ele>135</ele>
        <time>2024-10-25T10:48:31Z</time>
      </trkpt>
      <trkpt lat="49.17633" lon="1.72741">
        <ele>134</ele>
        <time>2024-10-25T10:48:47Z</time>
      </trkpt>
      <trkpt lat="49.1763" lon="1.72764">
        <ele>134</ele>
        <time>2024-10-25T10:48:59Z</time>
      </trkpt>
      <trkpt lat="49.17617" lon="1.7279">
        <ele>134</ele>
        <time>2024-10-25T10:49:16Z</time>
      </trkpt>
      <trkpt lat="49.17609" lon="1.72865">
        <ele>134</ele>
        <time>2024-10-25T10:49:56Z</time>
      </trkpt>
      <trkpt lat="49.17595" lon="1.72885">
        <ele>132</ele>
        <time>2024-10-25T10:50:11Z</time>
      </trkpt>
      <trkpt lat="49.17549" lon="1.72975">
        <ele>130</ele>
        <time>2024-10-25T10:51:11Z</time>
      </trkpt>
      <trkpt lat="49.17532" lon="1.72996">
        <ele>129</ele>
        <time>2024-10-25T10:51:29Z</time>
      </trkpt>
      <trkpt lat="49.17505" lon="1.73052">
        <ele>130</ele>
        <time>2024-10-25T10:52:05Z</time>
      </trkpt>
      <trkpt lat="49.17501" lon="1.73077">
        <ele>131</ele>
        <time>2024-10-25T10:52:18Z</time>
      </trkpt>
      <trkpt lat="49.17478" lon="1.73152">
        <ele>132</ele>
        <time>2024-10-25T10:53:02Z</time>
      </trkpt>
      <trkpt lat="49.17472" lon="1.73221">
        <ele>135</ele>
        <time>2024-10-25T10:53:38Z</time>
      </trkpt>
      <trkpt lat="49.17459" lon="1.73279">
        <ele>137</ele>
        <time>2024-10-25T10:54:10Z</time>
      </trkpt>
      <trkpt lat="49.17447" lon="1.73304">
        <ele>137</ele>
        <time>2024-10-25T10:54:27Z</time>
      </trkpt>
      <trkpt lat="49.17441" lon="1.7333">
        <ele>137</ele>
        <time>2024-10-25T10:54:41Z</time>
      </trkpt>
      <trkpt lat="49.17428" lon="1.73352">
        <ele>137</ele>
        <time>2024-10-25T10:54:57Z</time>
      </trkpt>
      <trkpt lat="49.1741" lon="1.7341">
        <ele>136</ele>
        <time>2024-10-25T10:55:30Z</time>
      </trkpt>
      <trkpt lat="49.17398" lon="1.73428">
        <ele>136</ele>
        <time>2024-10-25T10:55:44Z</time>
      </trkpt>
      <trkpt lat="49.1738" lon="1.73484">
        <ele>137</ele>
        <time>2024-10-25T10:56:16Z</time>
      </trkpt>
      <trkpt lat="49.17341" lon="1.73548">
        <ele>138</ele>
        <time>2024-10-25T10:57:02Z</time>
      </trkpt>
      <trkpt lat="49.17296" lon="1.73636">
        <ele>141</ele>
        <time>2024-10-25T10:58:01Z</time>
      </trkpt>
      <trkpt lat="49.17265" lon="1.73648">
        <ele>139</ele>
        <time>2024-10-25T10:58:26Z</time>
      </trkpt>
      <trkpt lat="49.17233" lon="1.73642">
        <ele>139</ele>
        <time>2024-10-25T10:58:52Z</time>
      </trkpt>
      <trkpt lat="49.17202" lon="1.73631">
        <ele>140</ele>
        <time>2024-10-25T10:59:17Z</time>
      </trkpt>
      <trkpt lat="49.17189" lon="1.73611">
        <ele>140</ele>
        <time>2024-10-25T10:59:32Z</time>
      </trkpt>
      <trkpt lat="49.1718" lon="1.73608">
        <ele>140</ele>
        <time>2024-10-25T10:59:40Z</time>
      </trkpt>
      <trkpt lat="49.17165" lon="1.73592">
        <ele>140</ele>
        <time>2024-10-25T10:59:54Z</time>
      </trkpt>
      <trkpt lat="49.17122" lon="1.73576">
        <ele>143</ele>
        <time>2024-10-25T11:00:30Z</time>
      </trkpt>
      <trkpt lat="49.17111" lon="1.73566">
        <ele>143</ele>
        <time>2024-10-25T11:00:40Z</time>
      </trkpt>
      <trkpt lat="49.1708" lon="1.73564">
        <ele>146</ele>
        <time>2024-10-25T11:01:05Z</time>
      </trkpt>
      <trkpt lat="49.17042" lon="1.73552">
        <ele>147</ele>
        <time>2024-10-25T11:01:36Z</time>
      </trkpt>
      <trkpt lat="49.17022" lon="1.73538">
        <ele>148</ele>
        <time>2024-10-25T11:01:53Z</time>
      </trkpt>
      <trkpt lat="49.16977" lon="1.73519">
        <ele>150</ele>
        <time>2024-10-25T11:02:31Z</time>
      </trkpt>
      <trkpt lat="49.16938" lon="1.73517">
        <ele>154</ele>
        <time>2024-10-25T11:03:02Z</time>
      </trkpt>
      <trkpt lat="49.16917" lon="1.73527">
        <ele>155</ele>
        <time>2024-10-25T11:03:20Z</time>
      </trkpt>
      <trkpt lat="49.16899" lon="1.73554">
        <ele>157</ele>
        <time>2024-10-25T11:03:40Z</time>
      </trkpt>
      <trkpt lat="49.16837" lon="1.73624">
        <ele>160</ele>
        <time>2024-10-25T11:04:42Z</time>
      </trkpt>
      <trkpt lat="49.16813" lon="1.7364">
        <ele>160</ele>
        <time>2024-10-25T11:05:02Z</time>
      </trkpt>
      <trkpt lat="49.16809" lon="1.73648">
        <ele>160</ele>
        <time>2024-10-25T11:05:08Z</time>
      </trkpt>
      <trkpt lat="49.16796" lon="1.73654">
        <ele>160</ele>
        <time>2024-10-25T11:05:19Z</time>
      </trkpt>
      <trkpt lat="49.16775" lon="1.73677">
        <ele>159</ele>
        <time>2024-10-25T11:05:39Z</time>
      </trkpt>
      <trkpt lat="49.16742" lon="1.73698">
        <ele>157</ele>
        <time>2024-10-25T11:06:08Z</time>
      </trkpt>
      <trkpt lat="49.16735" lon="1.73728">
        <ele>155</ele>
        <time>2024-10-25T11:06:25Z</time>
      </trkpt>
      <trkpt lat="49.16736" lon="1.73763">
        <ele>153</ele>
        <time>2024-10-25T11:06:43Z</time>
      </trkpt>
      <trkpt lat="49.16716" lon="1.73827">
        <ele>148</ele>
        <time>2024-10-25T11:07:20Z</time>
      </trkpt>
      <trkpt lat="49.16734" lon="1.73884">
        <ele>146</ele>
        <time>2024-10-25T11:07:53Z</time>
      </trkpt>
      <trkpt lat="49.16738" lon="1.73918">
        <ele>144</ele>
        <time>2024-10-25T11:08:11Z</time>
      </trkpt>
      <trkpt lat="49.16767" lon="1.74044">
        <ele>143</ele>
        <time>2024-10-25T11:09:21Z</time>
      </trkpt>
      <trkpt lat="49.1676" lon="1.7412">
        <ele>142</ele>
        <time>2024-10-25T11:10:01Z</time>
      </trkpt>
      <trkpt lat="49.16759" lon="1.74207">
        <ele>143</ele>
        <time>2024-10-25T11:10:47Z</time>
      </trkpt>
      <trkpt lat="49.16723" lon="1.74388">
        <ele>146</ele>
        <time>2024-10-25T11:12:26Z</time>
      </trkpt>
      <trkpt lat="49.16667" lon="1.74517">
        <ele>147</ele>
        <time>2024-10-25T11:13:47Z</time>
      </trkpt>
      <trkpt lat="49.16605" lon="1.74643">
        <ele>144</ele>
        <time>2024-10-25T11:15:10Z</time>
      </trkpt>
      <trkpt lat="49.16597" lon="1.74679">
        <ele>144</ele>
        <time>2024-10-25T11:15:30Z</time>
      </trkpt>
      <trkpt lat="49.16581" lon="1.74713">
        <ele>145</ele>
        <time>2024-10-25T11:15:51Z</time>
      </trkpt>
      <trkpt lat="49.16555" lon="1.74735">
        <ele>146</ele>
        <time>2024-10-25T11:16:15Z</time>
      </trkpt>
      <trkpt lat="49.1654" lon="1.74742">
        <ele>146</ele>
        <time>2024-10-25T11:16:28Z</time>
      </trkpt>
      <trkpt lat="49.16512" lon="1.74773">
        <ele>148</ele>
        <time>2024-10-25T11:16:56Z</time>
      </trkpt>
      <trkpt lat="49.16486" lon="1.74829">
        <ele>150</ele>
        <time>2024-10-25T11:17:31Z</time>
      </trkpt>
      <trkpt lat="49.16462" lon="1.74869">
        <ele>150</ele>
        <time>2024-10-25T11:18:00Z</time>
      </trkpt>
      <trkpt lat="49.16437" lon="1.74896">
        <ele>150</ele>
        <time>2024-10-25T11:18:24Z</time>
      </trkpt>
      <trkpt lat="49.16414" lon="1.74901">
        <ele>149</ele>
        <time>2024-10-25T11:18:43Z</time>
      </trkpt>
      <trkpt lat="49.16397" lon="1.74895">
        <ele>150</ele>
        <time>2024-10-25T11:18:57Z</time>
      </trkpt>
      <trkpt lat="49.16382" lon="1.74875">
        <ele>150</ele>
        <time>2024-10-25T11:19:13Z</time>
      </trkpt>
      <trkpt lat="49.16364" lon="1.7484">
        <ele>150</ele>
        <time>2024-10-25T11:19:36Z</time>
      </trkpt>
      <trkpt lat="49.16352" lon="1.74836">
        <ele>150</ele>
        <time>2024-10-25T11:19:46Z</time>
      </trkpt>
      <trkpt lat="49.16332" lon="1.74838">
        <ele>151</ele>
        <time>2024-10-25T11:20:02Z</time>
      </trkpt>
      <trkpt lat="49.16321" lon="1.74848">
        <ele>151</ele>
        <time>2024-10-25T11:20:12Z</time>
      </trkpt>
      <trkpt lat="49.16291" lon="1.74859">
        <ele>152</ele>
        <time>2024-10-25T11:20:37Z</time>
      </trkpt>
      <trkpt lat="49.1628" lon="1.74871">
        <ele>152</ele>
        <time>2024-10-25T11:20:48Z</time>
      </trkpt>
      <trkpt lat="49.16251" lon="1.74883">
        <ele>152</ele>
        <time>2024-10-25T11:21:12Z</time>
      </trkpt>
      <trkpt lat="49.16232" lon="1.74907">
        <ele>151</ele>
        <time>2024-10-25T11:21:32Z</time>
      </trkpt>
      <trkpt lat="49.16218" lon="1.74937">
        <ele>150</ele>
        <time>2024-10-25T11:21:51Z</time>
      </trkpt>
      <trkpt lat="49.16209" lon="1.7494">
        <ele>150</ele>
        <time>2024-10-25T11:21:58Z</time>
      </trkpt>
      <trkpt lat="49.16205" lon="1.74946">
        <ele>150</ele>
        <time>2024-10-25T11:22:03Z</time>
      </trkpt>
      <trkpt lat="49.16186" lon="1.74987">
        <ele>148</ele>
        <time>2024-10-25T11:22:29Z</time>
      </trkpt>
      <trkpt lat="49.16162" lon="1.75017">
        <ele>148</ele>
        <time>2024-10-25T11:22:54Z</time>
      </trkpt>
      <trkpt lat="49.16164" lon="1.75024">
        <ele>148</ele>
        <time>2024-10-25T11:22:58Z</time>
      </trkpt>
      <trkpt lat="49.16161" lon="1.7502">
        <ele>148</ele>
        <time>2024-10-25T11:23:01Z</time>
      </trkpt>
      <trkpt lat="49.16154" lon="1.75027">
        <ele>148</ele>
        <time>2024-10-25T11:23:08Z</time>
      </trkpt>
      <trkpt lat="49.16117" lon="1.75096">
        <ele>148</ele>
        <time>2024-10-25T11:23:55Z</time>
      </trkpt>
      <trkpt lat="49.16087" lon="1.75105">
        <ele>147</ele>
        <time>2024-10-25T11:24:19Z</time>
      </trkpt>
      <trkpt lat="49.16069" lon="1.75103">
        <ele>147</ele>
        <time>2024-10-25T11:24:33Z</time>
      </trkpt>
      <trkpt lat="49.16048" lon="1.75108">
        <ele>147</ele>
        <time>2024-10-25T11:24:50Z</time>
      </trkpt>
      <trkpt lat="49.16022" lon="1.7512">
        <ele>146</ele>
        <time>2024-10-25T11:25:12Z</time>
      </trkpt>
      <trkpt lat="49.15992" lon="1.7512">
        <ele>146</ele>
        <time>2024-10-25T11:25:36Z</time>
      </trkpt>
      <trkpt lat="49.15956" lon="1.75131">
        <ele>145</ele>
        <time>2024-10-25T11:26:06Z</time>
      </trkpt>
      <trkpt lat="49.15944" lon="1.75131">
        <ele>145</ele>
        <time>2024-10-25T11:26:15Z</time>
      </trkpt>
      <trkpt lat="49.15933" lon="1.7514">
        <ele>144</ele>
        <time>2024-10-25T11:26:25Z</time>
      </trkpt>
      <trkpt lat="49.15922" lon="1.75194">
        <ele>145</ele>
        <time>2024-10-25T11:26:55Z</time>
      </trkpt>
      <trkpt lat="49.15889" lon="1.75269">
        <ele>147</ele>
        <time>2024-10-25T11:27:42Z</time>
      </trkpt>
      <trkpt lat="49.15871" lon="1.75333">
        <ele>147</ele>
        <time>2024-10-25T11:28:19Z</time>
      </trkpt>
      <trkpt lat="49.15866" lon="1.75385">
        <ele>146</ele>
        <time>2024-10-25T11:28:46Z</time>
      </trkpt>
      <trkpt lat="49.15866" lon="1.75471">
        <ele>143</ele>
        <time>2024-10-25T11:29:31Z</time>
      </trkpt>
      <trkpt lat="49.15854" lon="1.75535">
        <ele>141</ele>
        <time>2024-10-25T11:30:06Z</time>
      </trkpt>
      <trkpt lat="49.15841" lon="1.75658">
        <ele>136</ele>
        <time>2024-10-25T11:31:11Z</time>
      </trkpt>
      <trkpt lat="49.15842" lon="1.75697">
        <ele>135</ele>
        <time>2024-10-25T11:31:32Z</time>
      </trkpt>
      <trkpt lat="49.15851" lon="1.75756">
        <ele>132</ele>
        <time>2024-10-25T11:32:03Z</time>
      </trkpt>
      <trkpt lat="49.15849" lon="1.75783">
        <ele>130</ele>
        <time>2024-10-25T11:32:18Z</time>
      </trkpt>
      <trkpt lat="49.15832" lon="1.75825">
        <ele>125</ele>
        <time>2024-10-25T11:32:44Z</time>
      </trkpt>
      <trkpt lat="49.15805" lon="1.75865">
        <ele>120</ele>
        <time>2024-10-25T11:33:14Z</time>
      </trkpt>
      <trkpt lat="49.15787" lon="1.75922">
        <ele>115</ele>
        <time>2024-10-25T11:33:47Z</time>
      </trkpt>
      <trkpt lat="49.15755" lon="1.75975">
        <ele>112</ele>
        <time>2024-10-25T11:34:25Z</time>
      </trkpt>
      <trkpt lat="49.1574" lon="1.76028">
        <ele>110</ele>
        <time>2024-10-25T11:34:55Z</time>
      </trkpt>
      <trkpt lat="49.15722" lon="1.76065">
        <ele>108</ele>
        <time>2024-10-25T11:35:19Z</time>
      </trkpt>
      <trkpt lat="49.15705" lon="1.76088">
        <ele>108</ele>
        <time>2024-10-25T11:35:37Z</time>
      </trkpt>
      <trkpt lat="49.15701" lon="1.76103">
        <ele>108</ele>
        <time>2024-10-25T11:35:46Z</time>
      </trkpt>
      <trkpt lat="49.15697" lon="1.76179">
        <ele>105</ele>
        <time>2024-10-25T11:36:26Z</time>
      </trkpt>
      <trkpt lat="49.15667" lon="1.76271">
        <ele>102</ele>
        <time>2024-10-25T11:37:19Z</time>
      </trkpt>
      <trkpt lat="49.15657" lon="1.76323">
        <ele>100</ele>
        <time>2024-10-25T11:37:48Z</time>
      </trkpt>
      <trkpt lat="49.15637" lon="1.76382">
        <ele>99</ele>
        <time>2024-10-25T11:38:23Z</time>
      </trkpt>
      <trkpt lat="49.15612" lon="1.76389">
        <ele>100</ele>
        <time>2024-10-25T11:38:43Z</time>
      </trkpt>
      <trkpt lat="49.15567" lon="1.76437">
        <ele>100</ele>
        <time>2024-10-25T11:39:27Z</time>
      </trkpt>
      <trkpt lat="49.15551" lon="1.76463">
        <ele>100</ele>
        <time>2024-10-25T11:39:46Z</time>
      </trkpt>
      <trkpt lat="49.15511" lon="1.76502">
        <ele>100</ele>
        <time>2024-10-25T11:40:24Z</time>
      </trkpt>
      <trkpt lat="49.15447" lon="1.76535">
        <ele>101</ele>
        <time>2024-10-25T11:41:18Z</time>
      </trkpt>
      <trkpt lat="49.15387" lon="1.76574">
        <ele>102</ele>
        <time>2024-10-25T11:42:10Z</time>
      </trkpt>
      <trkpt lat="49.15365" lon="1.76598">
        <ele>102</ele>
        <time>2024-10-25T11:42:31Z</time>
      </trkpt>
      <trkpt lat="49.15333" lon="1.76623">
        <ele>101</ele>
        <time>2024-10-25T11:43:00Z</time>
      </trkpt>
      <trkpt lat="49.153" lon="1.7666">
        <ele>100</ele>
        <time>2024-10-25T11:43:33Z</time>
      </trkpt>
      <trkpt lat="49.15263" lon="1.76691">
        <ele>99</ele>
        <time>2024-10-25T11:44:07Z</time>
      </trkpt>
      <trkpt lat="49.15225" lon="1.76734">
        <ele>96</ele>
        <time>2024-10-25T11:44:45Z</time>
      </trkpt>
      <trkpt lat="49.15197" lon="1.76755">
        <ele>93</ele>
        <time>2024-10-25T11:45:10Z</time>
      </trkpt>
      <trkpt lat="49.15151" lon="1.76801">
        <ele>87</ele>
        <time>2024-10-25T11:45:54Z</time>
      </trkpt>
      <trkpt lat="49.15137" lon="1.76808">
        <ele>84</ele>
        <time>2024-10-25T11:46:05Z</time>
      </trkpt>
      <trkpt lat="49.15125" lon="1.76804">
        <ele>82</ele>
        <time>2024-10-25T11:46:15Z</time>
      </trkpt>
      <trkpt lat="49.151" lon="1.76816">
        <ele>76</ele>
        <time>2024-10-25T11:46:36Z</time>
      </trkpt>
      <trkpt lat="49.15068" lon="1.76863">
        <ele>70</ele>
        <time>2024-10-25T11:47:12Z</time>
      </trkpt>
      <trkpt lat="49.15043" lon="1.7689">
        <ele>66</ele>
        <time>2024-10-25T11:47:36Z</time>
      </trkpt>
      <trkpt lat="49.15025" lon="1.76904">
        <ele>64</ele>
        <time>2024-10-25T11:47:52Z</time>
      </trkpt>
      <trkpt lat="49.15008" lon="1.76924">
        <ele>62</ele>
        <time>2024-10-25T11:48:10Z</time>
      </trkpt>
      <trkpt lat="49.14938" lon="1.76978">
        <ele>61</ele>
        <time>2024-10-25T11:49:12Z</time>
      </trkpt>
      <trkpt lat="49.1491" lon="1.7699">
        <ele>61</ele>
        <time>2024-10-25T11:49:36Z</time>
      </trkpt>
      <trkpt lat="49.14865" lon="1.77002">
        <ele>63</ele>
        <time>2024-10-25T11:50:12Z</time>
      </trkpt>
      <trkpt lat="49.14833" lon="1.77029">
        <ele>64</ele>
        <time>2024-10-25T11:50:41Z</time>
      </trkpt>
      <trkpt lat="49.14828" lon="1.77024">
        <ele>64</ele>
        <time>2024-10-25T11:50:46Z</time>
      </trkpt>
      <trkpt lat="49.14818" lon="1.77028">
        <ele>64</ele>
        <time>2024-10-25T11:50:55Z</time>
      </trkpt>
      <trkpt lat="49.1481" lon="1.7702">
        <ele>65</ele>
        <time>2024-10-25T11:51:02Z</time>
      </trkpt>
      <trkpt lat="49.14733" lon="1.76825">
        <ele>64</ele>
        <time>2024-10-25T11:53:01Z</time>
      </trkpt>
      <trkpt lat="49.14709" lon="1.76757">
        <ele>63</ele>
        <time>2024-10-25T11:53:42Z</time>
      </trkpt>
    </trkseg>
  </trk>
</gpx>